sensor_id;sensor_type;location;lat;lon;timestamp;P1;durP1;ratioP1;P2;durP2;ratioP2
42702;SDS011;28341;52.064;4.920;2022-10-15T00:01:45;55.42;;;42.00;;
42702;SDS011;28341;52.064;4.920;2022-10-15T00:03:49;58.15;;;42.58;;
42702;SDS011;28341;52.064;4.920;2022-10-15T00:05:54;55.70;;;42.00;;
42702;SDS011;28341;52.064;4.920;2022-10-15T00:07:58;58.17;;;43.58;;
42702;SDS011;28341;52.064;4.920;2022-10-15T00:10:06;60.05;;;41.65;;
42702;SDS011;28341;52.064;4.920;2022-10-15T00:12:11;63.60;;;45.72;;
42702;SDS011;28341;52.064;4.920;2022-10-15T00:14:16;60.05;;;44.78;;
42702;SDS011;28341;52.064;4.920;2022-10-15T00:16:21;60.47;;;46.20;;
42702;SDS011;28341;52.064;4.920;2022-10-15T00:18:28;60.55;;;43.63;;
42702;SDS011;28341;52.064;4.920;2022-10-15T00:20:32;61.08;;;44.65;;
42702;SDS011;28341;52.064;4.920;2022-10-15T00:22:37;69.47;;;47.65;;
42702;SDS011;28341;52.064;4.920;2022-10-15T00:24:41;60.97;;;43.40;;
42702;SDS011;28341;52.064;4.920;2022-10-15T00:26:49;62.88;;;45.92;;
42702;SDS011;28341;52.064;4.920;2022-10-15T00:28:53;70.00;;;48.03;;
42702;SDS011;28341;52.064;4.920;2022-10-15T00:30:59;66.28;;;46.47;;
42702;SDS011;28341;52.064;4.920;2022-10-15T00:33:05;66.68;;;47.50;;
42702;SDS011;28341;52.064;4.920;2022-10-15T00:35:10;63.53;;;46.85;;
42702;SDS011;28341;52.064;4.920;2022-10-15T00:37:14;67.65;;;46.78;;
42702;SDS011;28341;52.064;4.920;2022-10-15T00:39:20;68.50;;;46.75;;
42702;SDS011;28341;52.064;4.920;2022-10-15T00:41:26;67.80;;;48.75;;
42702;SDS011;28341;52.064;4.920;2022-10-15T00:43:42;74.28;;;50.38;;
42702;SDS011;28341;52.064;4.920;2022-10-15T00:45:49;73.10;;;47.97;;
42702;SDS011;28341;52.064;4.920;2022-10-15T00:47:53;74.70;;;50.10;;
42702;SDS011;28341;52.064;4.920;2022-10-15T00:49:58;68.72;;;49.40;;
42702;SDS011;28341;52.064;4.920;2022-10-15T00:52:09;78.47;;;52.47;;
42702;SDS011;28341;52.064;4.920;2022-10-15T00:54:16;72.72;;;50.45;;
42702;SDS011;28341;52.064;4.920;2022-10-15T00:56:22;76.18;;;51.97;;
42702;SDS011;28341;52.064;4.920;2022-10-15T00:58:27;71.32;;;50.50;;
42702;SDS011;28341;52.064;4.920;2022-10-15T01:00:35;76.80;;;52.60;;
42702;SDS011;28341;52.064;4.920;2022-10-15T01:02:40;78.00;;;51.55;;
42702;SDS011;28341;52.064;4.920;2022-10-15T01:04:45;83.60;;;53.50;;
42702;SDS011;28341;52.064;4.920;2022-10-15T01:06:49;82.50;;;55.92;;
42702;SDS011;28341;52.064;4.920;2022-10-15T01:08:54;86.00;;;54.45;;
42702;SDS011;28341;52.064;4.920;2022-10-15T01:11:03;89.18;;;57.13;;
42702;SDS011;28341;52.064;4.920;2022-10-15T01:13:21;83.70;;;54.42;;
42702;SDS011;28341;52.064;4.920;2022-10-15T01:15:36;77.20;;;52.38;;
42702;SDS011;28341;52.064;4.920;2022-10-15T01:17:48;82.72;;;54.75;;
42702;SDS011;28341;52.064;4.920;2022-10-15T01:20:12;88.65;;;56.35;;
42702;SDS011;28341;52.064;4.920;2022-10-15T01:22:52;89.97;;;57.55;;
42702;SDS011;28341;52.064;4.920;2022-10-15T01:25:14;90.07;;;56.05;;
42702;SDS011;28341;52.064;4.920;2022-10-15T01:27:36;91.88;;;58.88;;
42702;SDS011;28341;52.064;4.920;2022-10-15T01:32:29;95.35;;;58.25;;
42702;SDS011;28341;52.064;4.920;2022-10-15T01:34:39;91.32;;;56.28;;
42702;SDS011;28341;52.064;4.920;2022-10-15T01:36:57;95.68;;;57.97;;
42702;SDS011;28341;52.064;4.920;2022-10-15T01:39:08;100.78;;;62.15;;
42702;SDS011;28341;52.064;4.920;2022-10-15T01:41:17;92.40;;;57.25;;
42702;SDS011;28341;52.064;4.920;2022-10-15T01:43:29;95.28;;;56.08;;
42702;SDS011;28341;52.064;4.920;2022-10-15T01:45:59;96.13;;;57.13;;
42702;SDS011;28341;52.064;4.920;2022-10-15T01:48:18;94.25;;;56.25;;
42702;SDS011;28341;52.064;4.920;2022-10-15T01:50:25;88.93;;;58.03;;
42702;SDS011;28341;52.064;4.920;2022-10-15T01:52:33;92.03;;;58.20;;
42702;SDS011;28341;52.064;4.920;2022-10-15T01:54:39;87.35;;;57.00;;
42702;SDS011;28341;52.064;4.920;2022-10-15T01:56:44;93.50;;;56.63;;
42702;SDS011;28341;52.064;4.920;2022-10-15T01:58:54;100.10;;;59.30;;
42702;SDS011;28341;52.064;4.920;2022-10-15T02:01:01;93.13;;;57.33;;
42702;SDS011;28341;52.064;4.920;2022-10-15T02:03:08;95.95;;;58.85;;
42702;SDS011;28341;52.064;4.920;2022-10-15T02:05:14;91.15;;;57.10;;
42702;SDS011;28341;52.064;4.920;2022-10-15T02:07:29;82.53;;;53.97;;
42702;SDS011;28341;52.064;4.920;2022-10-15T02:09:42;85.10;;;54.92;;
42702;SDS011;28341;52.064;4.920;2022-10-15T02:11:55;87.75;;;55.00;;
42702;SDS011;28341;52.064;4.920;2022-10-15T02:14:13;87.45;;;56.28;;
42702;SDS011;28341;52.064;4.920;2022-10-15T02:16:26;86.88;;;55.42;;
42702;SDS011;28341;52.064;4.920;2022-10-15T02:18:38;85.63;;;54.97;;
42702;SDS011;28341;52.064;4.920;2022-10-15T02:20:46;88.85;;;54.75;;
42702;SDS011;28341;52.064;4.920;2022-10-15T02:25:04;93.78;;;55.20;;
42702;SDS011;28341;52.064;4.920;2022-10-15T02:27:11;93.20;;;58.10;;
42702;SDS011;28341;52.064;4.920;2022-10-15T02:29:18;100.50;;;60.50;;
42702;SDS011;28341;52.064;4.920;2022-10-15T02:31:29;96.30;;;59.53;;
42702;SDS011;28341;52.064;4.920;2022-10-15T02:33:34;94.35;;;57.50;;
42702;SDS011;28341;52.064;4.920;2022-10-15T02:35:39;102.57;;;61.95;;
42702;SDS011;28341;52.064;4.920;2022-10-15T02:37:45;95.85;;;57.80;;
42702;SDS011;28341;52.064;4.920;2022-10-15T02:39:53;90.28;;;57.65;;
42702;SDS011;28341;52.064;4.920;2022-10-15T02:41:57;87.55;;;56.88;;
42702;SDS011;28341;52.064;4.920;2022-10-15T02:44:03;96.18;;;60.83;;
42702;SDS011;28341;52.064;4.920;2022-10-15T02:46:09;90.85;;;57.80;;
42702;SDS011;28341;52.064;4.920;2022-10-15T02:48:18;87.90;;;57.00;;
42702;SDS011;28341;52.064;4.920;2022-10-15T02:50:24;83.18;;;55.80;;
42702;SDS011;28341;52.064;4.920;2022-10-15T02:52:28;86.43;;;54.88;;
42702;SDS011;28341;52.064;4.920;2022-10-15T02:54:33;92.82;;;57.15;;
42702;SDS011;28341;52.064;4.920;2022-10-15T02:56:38;81.22;;;54.42;;
42702;SDS011;28341;52.064;4.920;2022-10-15T02:58:42;79.35;;;53.03;;
42702;SDS011;28341;52.064;4.920;2022-10-15T03:00:47;75.35;;;51.30;;
42702;SDS011;28341;52.064;4.920;2022-10-15T03:02:52;78.38;;;52.42;;
42702;SDS011;28341;52.064;4.920;2022-10-15T03:04:59;87.85;;;57.20;;
42702;SDS011;28341;52.064;4.920;2022-10-15T03:07:04;79.63;;;54.15;;
42702;SDS011;28341;52.064;4.920;2022-10-15T03:09:08;73.25;;;50.70;;
42702;SDS011;28341;52.064;4.920;2022-10-15T03:11:13;78.60;;;52.67;;
42702;SDS011;28341;52.064;4.920;2022-10-15T03:13:18;74.05;;;51.72;;
42702;SDS011;28341;52.064;4.920;2022-10-15T03:15:25;74.57;;;52.13;;
42702;SDS011;28341;52.064;4.920;2022-10-15T03:17:30;75.10;;;51.05;;
42702;SDS011;28341;52.064;4.920;2022-10-15T03:19:35;83.70;;;54.50;;
42702;SDS011;28341;52.064;4.920;2022-10-15T03:21:42;77.68;;;52.92;;
42702;SDS011;28341;52.064;4.920;2022-10-15T03:23:49;81.80;;;54.28;;
42702;SDS011;28341;52.064;4.920;2022-10-15T03:25:57;82.85;;;53.85;;
42702;SDS011;28341;52.064;4.920;2022-10-15T03:28:01;76.75;;;52.03;;
42702;SDS011;28341;52.064;4.920;2022-10-15T03:30:11;76.03;;;53.30;;
42702;SDS011;28341;52.064;4.920;2022-10-15T03:32:16;73.80;;;52.17;;
42702;SDS011;28341;52.064;4.920;2022-10-15T03:34:20;78.40;;;52.97;;
42702;SDS011;28341;52.064;4.920;2022-10-15T03:36:25;77.05;;;55.10;;
42702;SDS011;28341;52.064;4.920;2022-10-15T03:38:32;70.72;;;50.45;;
42702;SDS011;28341;52.064;4.920;2022-10-15T03:40:37;77.18;;;52.83;;
42702;SDS011;28341;52.064;4.920;2022-10-15T03:42:51;76.28;;;53.05;;
42702;SDS011;28341;52.064;4.920;2022-10-15T03:44:57;75.30;;;51.78;;
42702;SDS011;28341;52.064;4.920;2022-10-15T03:47:05;74.70;;;52.00;;
42702;SDS011;28341;52.064;4.920;2022-10-15T03:49:17;80.57;;;54.00;;
42702;SDS011;28341;52.064;4.920;2022-10-15T03:51:22;82.07;;;55.90;;
42702;SDS011;28341;52.064;4.920;2022-10-15T03:53:37;74.68;;;53.88;;
42702;SDS011;28341;52.064;4.920;2022-10-15T03:55:41;77.18;;;54.58;;
42702;SDS011;28341;52.064;4.920;2022-10-15T03:57:46;72.97;;;53.47;;
42702;SDS011;28341;52.064;4.920;2022-10-15T03:59:51;70.90;;;51.22;;
42702;SDS011;28341;52.064;4.920;2022-10-15T04:01:58;74.57;;;54.15;;
42702;SDS011;28341;52.064;4.920;2022-10-15T04:04:05;75.63;;;52.78;;
42702;SDS011;28341;52.064;4.920;2022-10-15T04:06:10;75.63;;;51.80;;
42702;SDS011;28341;52.064;4.920;2022-10-15T04:08:14;83.20;;;57.17;;
42702;SDS011;28341;52.064;4.920;2022-10-15T04:10:21;78.95;;;55.90;;
42702;SDS011;28341;52.064;4.920;2022-10-15T04:12:26;79.28;;;54.65;;
42702;SDS011;28341;52.064;4.920;2022-10-15T04:14:31;70.32;;;51.05;;
42702;SDS011;28341;52.064;4.920;2022-10-15T04:16:35;73.70;;;52.50;;
42702;SDS011;28341;52.064;4.920;2022-10-15T04:18:48;76.25;;;53.08;;
42702;SDS011;28341;52.064;4.920;2022-10-15T04:20:53;78.57;;;57.05;;
42702;SDS011;28341;52.064;4.920;2022-10-15T04:23:00;78.05;;;53.30;;
42702;SDS011;28341;52.064;4.920;2022-10-15T04:25:06;86.75;;;56.20;;
42702;SDS011;28341;52.064;4.920;2022-10-15T04:27:14;81.72;;;56.45;;
42702;SDS011;28341;52.064;4.920;2022-10-15T04:29:18;82.78;;;55.60;;
42702;SDS011;28341;52.064;4.920;2022-10-15T04:31:23;92.28;;;59.80;;
42702;SDS011;28341;52.064;4.920;2022-10-15T04:33:28;88.78;;;61.55;;
42702;SDS011;28341;52.064;4.920;2022-10-15T04:35:34;86.40;;;59.42;;
42702;SDS011;28341;52.064;4.920;2022-10-15T04:37:45;86.03;;;58.95;;
42702;SDS011;28341;52.064;4.920;2022-10-15T04:39:50;90.28;;;60.50;;
42702;SDS011;28341;52.064;4.920;2022-10-15T04:41:54;95.35;;;62.28;;
42702;SDS011;28341;52.064;4.920;2022-10-15T04:44:05;91.68;;;61.88;;
42702;SDS011;28341;52.064;4.920;2022-10-15T04:46:11;90.38;;;63.25;;
42702;SDS011;28341;52.064;4.920;2022-10-15T04:48:16;91.93;;;60.22;;
42702;SDS011;28341;52.064;4.920;2022-10-15T04:50:20;88.47;;;60.80;;
42702;SDS011;28341;52.064;4.920;2022-10-15T04:52:43;92.03;;;60.50;;
42702;SDS011;28341;52.064;4.920;2022-10-15T04:54:49;82.18;;;59.17;;
42702;SDS011;28341;52.064;4.920;2022-10-15T04:56:54;90.05;;;59.95;;
42702;SDS011;28341;52.064;4.920;2022-10-15T04:58:59;91.32;;;61.67;;
42702;SDS011;28341;52.064;4.920;2022-10-15T05:01:11;86.78;;;59.58;;
42702;SDS011;28341;52.064;4.920;2022-10-15T05:03:29;83.57;;;59.58;;
42702;SDS011;28341;52.064;4.920;2022-10-15T05:05:37;94.60;;;62.47;;
42702;SDS011;28341;52.064;4.920;2022-10-15T05:07:42;81.07;;;59.10;;
42702;SDS011;28341;52.064;4.920;2022-10-15T05:09:46;97.55;;;65.85;;
42702;SDS011;28341;52.064;4.920;2022-10-15T05:11:51;97.50;;;64.85;;
42702;SDS011;28341;52.064;4.920;2022-10-15T05:13:55;96.75;;;63.60;;
42702;SDS011;28341;52.064;4.920;2022-10-15T05:16:07;98.78;;;64.60;;
42702;SDS011;28341;52.064;4.920;2022-10-15T05:18:18;85.85;;;60.28;;
42702;SDS011;28341;52.064;4.920;2022-10-15T05:20:25;87.30;;;61.10;;
42702;SDS011;28341;52.064;4.920;2022-10-15T05:22:32;85.13;;;59.35;;
42702;SDS011;28341;52.064;4.920;2022-10-15T05:24:36;91.03;;;63.35;;
42702;SDS011;28341;52.064;4.920;2022-10-15T05:27:07;95.15;;;62.53;;
42702;SDS011;28341;52.064;4.920;2022-10-15T05:29:12;111.82;;;69.30;;
42702;SDS011;28341;52.064;4.920;2022-10-15T05:31:20;89.50;;;61.72;;
42702;SDS011;28341;52.064;4.920;2022-10-15T05:33:35;104.07;;;66.38;;
42702;SDS011;28341;52.064;4.920;2022-10-15T05:35:40;96.80;;;61.40;;
42702;SDS011;28341;52.064;4.920;2022-10-15T05:37:44;101.00;;;62.25;;
42702;SDS011;28341;52.064;4.920;2022-10-15T05:39:49;112.82;;;68.82;;
42702;SDS011;28341;52.064;4.920;2022-10-15T05:41:53;100.28;;;64.97;;
42702;SDS011;28341;52.064;4.920;2022-10-15T05:44:09;105.70;;;62.60;;
42702;SDS011;28341;52.064;4.920;2022-10-15T05:46:13;116.72;;;67.93;;
42702;SDS011;28341;52.064;4.920;2022-10-15T05:48:21;111.68;;;65.63;;
42702;SDS011;28341;52.064;4.920;2022-10-15T05:50:25;117.07;;;66.78;;
42702;SDS011;28341;52.064;4.920;2022-10-15T05:52:31;122.90;;;68.90;;
42702;SDS011;28341;52.064;4.920;2022-10-15T05:54:49;116.38;;;65.45;;
42702;SDS011;28341;52.064;4.920;2022-10-15T05:56:53;131.02;;;71.38;;
42702;SDS011;28341;52.064;4.920;2022-10-15T05:58:58;123.57;;;67.45;;
42702;SDS011;28341;52.064;4.920;2022-10-15T06:01:04;143.40;;;75.22;;
42702;SDS011;28341;52.064;4.920;2022-10-15T06:03:11;135.35;;;69.38;;
42702;SDS011;28341;52.064;4.920;2022-10-15T06:05:19;157.38;;;74.82;;
42702;SDS011;28341;52.064;4.920;2022-10-15T06:07:23;141.85;;;70.65;;
42702;SDS011;28341;52.064;4.920;2022-10-15T06:09:28;158.07;;;74.55;;
42702;SDS011;28341;52.064;4.920;2022-10-15T06:11:33;167.77;;;78.80;;
42702;SDS011;28341;52.064;4.920;2022-10-15T06:13:41;164.85;;;77.25;;
42702;SDS011;28341;52.064;4.920;2022-10-15T06:15:46;155.95;;;71.93;;
42702;SDS011;28341;52.064;4.920;2022-10-15T06:17:51;147.10;;;73.53;;
42702;SDS011;28341;52.064;4.920;2022-10-15T06:19:56;152.85;;;73.45;;
42702;SDS011;28341;52.064;4.920;2022-10-15T06:22:03;161.95;;;74.68;;
42702;SDS011;28341;52.064;4.920;2022-10-15T06:24:08;145.75;;;69.82;;
42702;SDS011;28341;52.064;4.920;2022-10-15T06:26:12;142.80;;;68.85;;
42702;SDS011;28341;52.064;4.920;2022-10-15T06:28:18;140.52;;;67.88;;
42702;SDS011;28341;52.064;4.920;2022-10-15T06:30:23;135.57;;;64.15;;
42702;SDS011;28341;52.064;4.920;2022-10-15T06:32:28;135.43;;;67.13;;
42702;SDS011;28341;52.064;4.920;2022-10-15T06:34:32;151.10;;;70.93;;
42702;SDS011;28341;52.064;4.920;2022-10-15T06:36:37;156.32;;;71.93;;
42702;SDS011;28341;52.064;4.920;2022-10-15T06:38:44;173.30;;;77.53;;
42702;SDS011;28341;52.064;4.920;2022-10-15T06:40:50;165.30;;;79.50;;
42702;SDS011;28341;52.064;4.920;2022-10-15T06:42:54;170.10;;;77.47;;
42702;SDS011;28341;52.064;4.920;2022-10-15T06:45:00;174.65;;;77.53;;
42702;SDS011;28341;52.064;4.920;2022-10-15T06:47:05;166.55;;;75.90;;
42702;SDS011;28341;52.064;4.920;2022-10-15T06:49:10;152.32;;;70.95;;
42702;SDS011;28341;52.064;4.920;2022-10-15T06:51:16;166.45;;;71.18;;
42702;SDS011;28341;52.064;4.920;2022-10-15T06:53:23;157.85;;;71.10;;
42702;SDS011;28341;52.064;4.920;2022-10-15T06:55:31;165.57;;;72.65;;
42702;SDS011;28341;52.064;4.920;2022-10-15T06:57:38;156.82;;;71.63;;
42702;SDS011;28341;52.064;4.920;2022-10-15T06:59:43;155.70;;;70.82;;
42702;SDS011;28341;52.064;4.920;2022-10-15T07:01:47;152.18;;;71.18;;
42702;SDS011;28341;52.064;4.920;2022-10-15T07:03:52;164.20;;;74.10;;
42702;SDS011;28341;52.064;4.920;2022-10-15T07:06:00;159.23;;;69.72;;
42702;SDS011;28341;52.064;4.920;2022-10-15T07:08:05;145.45;;;66.82;;
42702;SDS011;28341;52.064;4.920;2022-10-15T07:10:10;150.38;;;67.80;;
42702;SDS011;28341;52.064;4.920;2022-10-15T07:12:17;149.07;;;67.78;;
42702;SDS011;28341;52.064;4.920;2022-10-15T07:14:22;140.20;;;62.95;;
42702;SDS011;28341;52.064;4.920;2022-10-15T07:16:26;138.13;;;64.22;;
42702;SDS011;28341;52.064;4.920;2022-10-15T07:18:31;142.15;;;66.13;;
42702;SDS011;28341;52.064;4.920;2022-10-15T07:20:37;147.88;;;68.38;;
42702;SDS011;28341;52.064;4.920;2022-10-15T07:22:41;139.88;;;66.30;;
42702;SDS011;28341;52.064;4.920;2022-10-15T07:24:46;137.60;;;65.03;;
42702;SDS011;28341;52.064;4.920;2022-10-15T07:26:50;127.85;;;63.67;;
42702;SDS011;28341;52.064;4.920;2022-10-15T07:28:57;126.80;;;62.78;;
42702;SDS011;28341;52.064;4.920;2022-10-15T07:31:03;125.75;;;59.70;;
42702;SDS011;28341;52.064;4.920;2022-10-15T07:33:12;151.63;;;91.68;;
42702;SDS011;28341;52.064;4.920;2022-10-15T07:35:25;114.50;;;61.33;;
42702;SDS011;28341;52.064;4.920;2022-10-15T07:37:30;105.28;;;54.67;;
42702;SDS011;28341;52.064;4.920;2022-10-15T07:39:35;98.45;;;53.50;;
42702;SDS011;28341;52.064;4.920;2022-10-15T07:41:39;106.05;;;57.20;;
42702;SDS011;28341;52.064;4.920;2022-10-15T07:43:44;102.07;;;56.03;;
42702;SDS011;28341;52.064;4.920;2022-10-15T07:45:51;103.47;;;56.20;;
42702;SDS011;28341;52.064;4.920;2022-10-15T07:47:56;96.97;;;55.42;;
42702;SDS011;28341;52.064;4.920;2022-10-15T07:50:00;91.85;;;53.42;;
42702;SDS011;28341;52.064;4.920;2022-10-15T07:52:05;85.07;;;50.17;;
42702;SDS011;28341;52.064;4.920;2022-10-15T07:54:10;87.05;;;50.10;;
42702;SDS011;28341;52.064;4.920;2022-10-15T07:56:15;74.22;;;46.95;;
42702;SDS011;28341;52.064;4.920;2022-10-15T07:58:19;70.03;;;43.78;;
42702;SDS011;28341;52.064;4.920;2022-10-15T08:00:24;67.95;;;43.53;;
42702;SDS011;28341;52.064;4.920;2022-10-15T08:02:31;64.15;;;43.35;;
42702;SDS011;28341;52.064;4.920;2022-10-15T08:04:35;61.20;;;39.85;;
42702;SDS011;28341;52.064;4.920;2022-10-15T08:06:40;72.82;;;49.33;;
42702;SDS011;28341;52.064;4.920;2022-10-15T08:08:44;72.53;;;50.40;;
42702;SDS011;28341;52.064;4.920;2022-10-15T08:10:49;58.53;;;39.97;;
42702;SDS011;28341;52.064;4.920;2022-10-15T08:12:53;60.75;;;40.72;;
42702;SDS011;28341;52.064;4.920;2022-10-15T08:14:58;58.03;;;40.10;;
42702;SDS011;28341;52.064;4.920;2022-10-15T08:17:03;59.33;;;39.97;;
42702;SDS011;28341;52.064;4.920;2022-10-15T08:19:10;63.33;;;41.08;;
42702;SDS011;28341;52.064;4.920;2022-10-15T08:21:17;53.28;;;38.15;;
42702;SDS011;28341;52.064;4.920;2022-10-15T08:23:21;56.55;;;39.30;;
42702;SDS011;28341;52.064;4.920;2022-10-15T08:25:26;53.25;;;38.33;;
42702;SDS011;28341;52.064;4.920;2022-10-15T08:27:31;50.80;;;37.88;;
42702;SDS011;28341;52.064;4.920;2022-10-15T08:29:37;55.30;;;38.75;;
42702;SDS011;28341;52.064;4.920;2022-10-15T08:31:42;54.85;;;37.42;;
42702;SDS011;28341;52.064;4.920;2022-10-15T08:33:46;72.95;;;55.22;;
42702;SDS011;28341;52.064;4.920;2022-10-15T08:35:53;61.88;;;46.72;;
42702;SDS011;28341;52.064;4.920;2022-10-15T08:37:58;61.42;;;48.08;;
42702;SDS011;28341;52.064;4.920;2022-10-15T08:40:03;45.22;;;33.78;;
42702;SDS011;28341;52.064;4.920;2022-10-15T08:42:13;41.97;;;31.40;;
42702;SDS011;28341;52.064;4.920;2022-10-15T08:44:22;41.60;;;30.70;;
42702;SDS011;28341;52.064;4.920;2022-10-15T08:46:30;40.33;;;28.77;;
42702;SDS011;28341;52.064;4.920;2022-10-15T08:48:43;34.65;;;26.92;;
42702;SDS011;28341;52.064;4.920;2022-10-15T08:50:54;33.67;;;26.48;;
42702;SDS011;28341;52.064;4.920;2022-10-15T08:53:02;37.42;;;27.70;;
42702;SDS011;28341;52.064;4.920;2022-10-15T08:55:07;30.92;;;24.45;;
42702;SDS011;28341;52.064;4.920;2022-10-15T08:57:19;34.75;;;26.27;;
42702;SDS011;28341;52.064;4.920;2022-10-15T08:59:35;32.08;;;25.67;;
42702;SDS011;28341;52.064;4.920;2022-10-15T09:01:43;30.25;;;25.92;;
42702;SDS011;28341;52.064;4.920;2022-10-15T09:03:54;30.08;;;25.88;;
42702;SDS011;28341;52.064;4.920;2022-10-15T09:06:11;31.83;;;26.38;;
42702;SDS011;28341;52.064;4.920;2022-10-15T09:08:27;31.70;;;26.33;;
42702;SDS011;28341;52.064;4.920;2022-10-15T09:10:38;29.15;;;25.05;;
42702;SDS011;28341;52.064;4.920;2022-10-15T09:12:50;27.90;;;24.40;;
42702;SDS011;28341;52.064;4.920;2022-10-15T09:15:01;27.20;;;24.30;;
42702;SDS011;28341;52.064;4.920;2022-10-15T09:17:15;28.02;;;23.77;;
42702;SDS011;28341;52.064;4.920;2022-10-15T09:19:24;24.98;;;22.40;;
42702;SDS011;28341;52.064;4.920;2022-10-15T09:21:31;27.08;;;24.17;;
42702;SDS011;28341;52.064;4.920;2022-10-15T09:23:38;25.17;;;22.40;;
42702;SDS011;28341;52.064;4.920;2022-10-15T09:25:44;25.33;;;22.58;;
42702;SDS011;28341;52.064;4.920;2022-10-15T09:27:54;25.75;;;22.92;;
42702;SDS011;28341;52.064;4.920;2022-10-15T09:30:02;44.33;;;39.28;;
42702;SDS011;28341;52.064;4.920;2022-10-15T09:32:12;84.45;;;71.78;;
42702;SDS011;28341;52.064;4.920;2022-10-15T09:34:21;26.15;;;23.05;;
42702;SDS011;28341;52.064;4.920;2022-10-15T09:36:34;25.00;;;21.95;;
42702;SDS011;28341;52.064;4.920;2022-10-15T09:38:45;26.35;;;22.83;;
42702;SDS011;28341;52.064;4.920;2022-10-15T09:41:00;27.58;;;22.95;;
42702;SDS011;28341;52.064;4.920;2022-10-15T09:43:17;29.35;;;22.67;;
42702;SDS011;28341;52.064;4.920;2022-10-15T09:45:27;27.60;;;22.60;;
42702;SDS011;28341;52.064;4.920;2022-10-15T09:47:33;29.42;;;24.50;;
42702;SDS011;28341;52.064;4.920;2022-10-15T09:49:38;27.35;;;23.38;;
42702;SDS011;28341;52.064;4.920;2022-10-15T09:51:47;24.95;;;22.02;;
42702;SDS011;28341;52.064;4.920;2022-10-15T09:54:01;26.48;;;21.67;;
42702;SDS011;28341;52.064;4.920;2022-10-15T09:56:12;31.52;;;25.00;;
42702;SDS011;28341;52.064;4.920;2022-10-15T09:58:21;37.33;;;31.60;;
42702;SDS011;28341;52.064;4.920;2022-10-15T10:00:42;70.88;;;55.90;;
42702;SDS011;28341;52.064;4.920;2022-10-15T10:03:02;30.98;;;23.45;;
42702;SDS011;28341;52.064;4.920;2022-10-15T10:05:19;25.30;;;21.05;;
42702;SDS011;28341;52.064;4.920;2022-10-15T10:07:35;28.30;;;21.33;;
42702;SDS011;28341;52.064;4.920;2022-10-15T10:09:46;24.70;;;20.45;;
42702;SDS011;28341;52.064;4.920;2022-10-15T10:11:54;26.52;;;20.73;;
42702;SDS011;28341;52.064;4.920;2022-10-15T10:14:02;21.48;;;18.17;;
42702;SDS011;28341;52.064;4.920;2022-10-15T10:16:07;27.25;;;20.25;;
42702;SDS011;28341;52.064;4.920;2022-10-15T10:18:17;22.88;;;18.10;;
42702;SDS011;28341;52.064;4.920;2022-10-15T10:20:22;21.17;;;17.05;;
42702;SDS011;28341;52.064;4.920;2022-10-15T10:22:28;20.50;;;16.83;;
42702;SDS011;28341;52.064;4.920;2022-10-15T10:24:35;23.42;;;17.23;;
42702;SDS011;28341;52.064;4.920;2022-10-15T10:26:41;17.77;;;15.13;;
42702;SDS011;28341;52.064;4.920;2022-10-15T10:28:48;19.05;;;16.17;;
42702;SDS011;28341;52.064;4.920;2022-10-15T10:30:58;18.33;;;14.65;;
42702;SDS011;28341;52.064;4.920;2022-10-15T10:33:09;18.17;;;14.40;;
42702;SDS011;28341;52.064;4.920;2022-10-15T10:35:19;18.42;;;14.57;;
42702;SDS011;28341;52.064;4.920;2022-10-15T10:37:26;19.13;;;14.90;;
42702;SDS011;28341;52.064;4.920;2022-10-15T10:39:36;15.98;;;13.60;;
42702;SDS011;28341;52.064;4.920;2022-10-15T10:41:47;16.58;;;13.20;;
42702;SDS011;28341;52.064;4.920;2022-10-15T10:43:54;15.90;;;12.90;;
42702;SDS011;28341;52.064;4.920;2022-10-15T10:46:00;18.48;;;13.57;;
42702;SDS011;28341;52.064;4.920;2022-10-15T10:48:16;16.80;;;13.05;;
42702;SDS011;28341;52.064;4.920;2022-10-15T10:50:27;16.42;;;13.63;;
42702;SDS011;28341;52.064;4.920;2022-10-15T10:52:39;16.55;;;13.07;;
42702;SDS011;28341;52.064;4.920;2022-10-15T10:54:47;14.82;;;12.65;;
42702;SDS011;28341;52.064;4.920;2022-10-15T10:56:54;13.75;;;11.75;;
42702;SDS011;28341;52.064;4.920;2022-10-15T10:59:01;16.42;;;12.43;;
42702;SDS011;28341;52.064;4.920;2022-10-15T11:01:12;14.90;;;12.50;;
42702;SDS011;28341;52.064;4.920;2022-10-15T11:03:21;14.93;;;11.93;;
42702;SDS011;28341;52.064;4.920;2022-10-15T11:05:35;15.73;;;12.35;;
42702;SDS011;28341;52.064;4.920;2022-10-15T11:07:44;16.83;;;12.52;;
42702;SDS011;28341;52.064;4.920;2022-10-15T11:09:57;18.25;;;12.63;;
42702;SDS011;28341;52.064;4.920;2022-10-15T11:12:09;14.05;;;12.25;;
42702;SDS011;28341;52.064;4.920;2022-10-15T11:14:30;16.25;;;12.55;;
42702;SDS011;28341;52.064;4.920;2022-10-15T11:16:44;21.90;;;12.63;;
42702;SDS011;28341;52.064;4.920;2022-10-15T11:18:58;17.85;;;12.52;;
42702;SDS011;28341;52.064;4.920;2022-10-15T11:21:24;17.27;;;13.35;;
42702;SDS011;28341;52.064;4.920;2022-10-15T11:26:27;16.58;;;13.70;;
42702;SDS011;28341;52.064;4.920;2022-10-15T11:28:45;17.00;;;13.32;;
42702;SDS011;28341;52.064;4.920;2022-10-15T11:30:58;14.95;;;12.80;;
42702;SDS011;28341;52.064;4.920;2022-10-15T11:33:17;15.82;;;13.20;;
42702;SDS011;28341;52.064;4.920;2022-10-15T11:35:40;16.13;;;13.15;;
42702;SDS011;28341;52.064;4.920;2022-10-15T11:37:54;15.02;;;13.05;;
42702;SDS011;28341;52.064;4.920;2022-10-15T11:40:12;19.17;;;14.80;;
42702;SDS011;28341;52.064;4.920;2022-10-15T11:42:28;19.17;;;14.35;;
42702;SDS011;28341;52.064;4.920;2022-10-15T11:44:41;15.40;;;13.40;;
42702;SDS011;28341;52.064;4.920;2022-10-15T11:47:33;15.25;;;11.98;;
42702;SDS011;28341;52.064;4.920;2022-10-15T11:49:48;14.32;;;12.82;;
42702;SDS011;28341;52.064;4.920;2022-10-15T11:52:22;16.38;;;13.32;;
42702;SDS011;28341;52.064;4.920;2022-10-15T11:54:38;13.63;;;11.97;;
42702;SDS011;28341;52.064;4.920;2022-10-15T11:56:46;15.77;;;13.40;;
42702;SDS011;28341;52.064;4.920;2022-10-15T11:58:56;14.98;;;13.00;;
42702;SDS011;28341;52.064;4.920;2022-10-15T12:01:04;13.30;;;11.90;;
42702;SDS011;28341;52.064;4.920;2022-10-15T12:03:12;14.20;;;12.70;;
42702;SDS011;28341;52.064;4.920;2022-10-15T12:05:23;15.18;;;13.43;;
42702;SDS011;28341;52.064;4.920;2022-10-15T12:07:34;13.73;;;12.32;;
42702;SDS011;28341;52.064;4.920;2022-10-15T12:09:46;15.10;;;13.50;;
42702;SDS011;28341;52.064;4.920;2022-10-15T12:11:55;13.68;;;12.38;;
42702;SDS011;28341;52.064;4.920;2022-10-15T12:14:11;14.05;;;12.65;;
42702;SDS011;28341;52.064;4.920;2022-10-15T12:16:23;15.25;;;11.85;;
42702;SDS011;28341;52.064;4.920;2022-10-15T12:18:34;14.80;;;13.02;;
42702;SDS011;28341;52.064;4.920;2022-10-15T12:20:41;13.80;;;12.48;;
42702;SDS011;28341;52.064;4.920;2022-10-15T12:25:37;13.48;;;12.07;;
42702;SDS011;28341;52.064;4.920;2022-10-15T12:27:43;13.88;;;12.57;;
42702;SDS011;28341;52.064;4.920;2022-10-15T12:29:51;14.35;;;12.00;;
42702;SDS011;28341;52.064;4.920;2022-10-15T12:32:23;12.80;;;11.60;;
42702;SDS011;28341;52.064;4.920;2022-10-15T12:34:30;13.63;;;12.32;;
42702;SDS011;28341;52.064;4.920;2022-10-15T12:36:42;12.85;;;11.55;;
42702;SDS011;28341;52.064;4.920;2022-10-15T12:38:50;11.90;;;10.80;;
42702;SDS011;28341;52.064;4.920;2022-10-15T12:41:01;13.70;;;11.57;;